TimeEDT,TemperatureF,Dew PointF,Humidity,Sea Level PressureIn,VisibilityMPH,Wind Direction,Wind SpeedMPH,Gust SpeedMPH,PrecipitationIn,Events,Conditions,WindDirDegrees,DateUTC
12:54 AM,64.0,61.0,90,29.97,10.0,WSW,4.6,-,N/A,,Clear,250,2013-07-27 04:54:00
1:54 AM,64.9,60.1,84,29.95,10.0,Calm,Calm,-,N/A,,Partly Cloudy,0,2013-07-27 05:54:00
2:54 AM,64.9,60.1,84,29.95,10.0,West,4.6,-,N/A,,Clear,260,2013-07-27 06:54:00
3:54 AM,62.1,59.0,90,29.95,10.0,Calm,Calm,-,N/A,,Clear,0,2013-07-27 07:54:00
4:54 AM,63.0,59.0,87,29.96,10.0,WSW,4.6,-,N/A,,Clear,240,2013-07-27 08:54:00
5:54 AM,59.0,57.0,93,29.99,10.0,Calm,Calm,-,N/A,,Clear,0,2013-07-27 09:54:00
6:54 AM,66.0,60.1,81,30.00,10.0,Calm,Calm,-,N/A,,Clear,0,2013-07-27 10:54:00
7:54 AM,71.1,61.0,70,30.01,10.0,Calm,Calm,-,N/A,,Clear,0,2013-07-27 11:54:00
8:54 AM,73.0,60.1,64,30.02,10.0,Calm,Calm,-,N/A,,Clear,0,2013-07-27 12:54:00
9:54 AM,77.0,61.0,58,30.02,10.0,Calm,Calm,-,N/A,,Clear,0,2013-07-27 13:54:00
10:54 AM,80.1,60.1,50,30.02,10.0,Calm,Calm,-,N/A,,Clear,0,2013-07-27 14:54:00
11:54 AM,82.0,62.1,51,30.02,10.0,Variable,3.5,-,N/A,,Clear,0,2013-07-27 15:54:00
12:54 PM,84.0,62.1,47,30.01,10.0,Variable,6.9,-,N/A,,Clear,0,2013-07-27 16:54:00
1:54 PM,82.0,61.0,49,30.00,10.0,SSE,5.8,-,N/A,,Scattered Clouds,160,2013-07-27 17:54:00
2:54 PM,84.9,59.0,41,30.00,10.0,Variable,4.6,-,N/A,,Scattered Clouds,0,2013-07-27 18:54:00
3:54 PM,84.0,60.1,44,29.99,10.0,South,6.9,-,N/A,,Scattered Clouds,180,2013-07-27 19:54:00
4:54 PM,82.9,55.9,39,29.99,10.0,Variable,5.8,-,N/A,,Clear,0,2013-07-27 20:54:00
5:54 PM,79.0,60.1,52,29.99,10.0,Calm,Calm,-,N/A,,Clear,0,2013-07-27 21:54:00
6:54 PM,77.0,61.0,58,29.99,10.0,Calm,Calm,-,N/A,,Clear,0,2013-07-27 22:54:00
7:54 PM,72.0,62.1,71,30.00,10.0,Calm,Calm,-,N/A,,Clear,0,2013-07-27 23:54:00
8:54 PM,66.9,61.0,81,30.01,10.0,SSE,3.5,-,N/A,,Clear,160,2013-07-28 00:54:00
9:54 PM,64.9,61.0,87,30.02,10.0,Calm,Calm,-,N/A,,Clear,0,2013-07-28 01:54:00
10:54 PM,63.0,60.1,90,30.02,10.0,Calm,Calm,-,N/A,,Clear,0,2013-07-28 02:54:00
11:54 PM,61.0,59.0,93,30.02,10.0,Calm,Calm,-,N/A,,Clear,0,2013-07-28 03:54:00